»·PEaware :: N933VL KAVX-KSAN

N933VL :: KAVX-KSAN

FLIGHT INFORMATION

Flight Status: Arrived
Operator: Privately registered:
United States
More flights under this callsign
Pilot: Greg C. (27677)
Aircraft: CESSNA 172 SKYHAWK
(C172)
More flights by this aircraft type
Origin: KAVX Catalina
United States
Destination: KSAN San Diego Intl-Lindbergh
United States
More flights between these airports :: More routes between these airports
Route: CSTP56
File this flight plan on PilotEdge
Remarks:
Altitude:
(Current/Filed)
5,000ft
Speed:
(Current/Filed)
115kts
Departed: 10-Feb-20 09:49 PM
Arrived: 10-Feb-20 10:52 PM
Distance/Time
Traveled:
74nm/1:03
Distance/Time
To Go:
Arrived

Flight Plot

Page will automatically refresh every two minutes.

Flight plan parsing failed; only flown route is shown


Map Options




Map Legend


Flown Route
Filed Route
Departure Airport
Arrival Airport
Navaid (VOR, NDB)
Fix

Horizontal Profiles

Position Reports

Time Latitude Longitude Heading Altitude Ground
Speed
10-Feb-20 21:29 33.403604 -118.415725 0 1550ft 0kts
10-Feb-20 21:30 33.403604 -118.415725 142 1550ft 0kts
10-Feb-20 21:31 33.403604 -118.415725 142 1550ft 0kts
10-Feb-20 21:33 33.403604 -118.415725 142 1550ft 0kts
10-Feb-20 21:34 33.403604 -118.415725 142 1550ft 0kts
10-Feb-20 21:35 33.403604 -118.415725 142 1550ft 0kts
10-Feb-20 21:36 33.403604 -118.415725 142 1550ft 0kts
10-Feb-20 21:37 33.403604 -118.415725 142 1550ft 0kts
10-Feb-20 21:38 33.403604 -118.415725 142 1550ft 0kts
10-Feb-20 21:39 33.403604 -118.415725 142 1550ft 0kts
10-Feb-20 21:40 33.403604 -118.415725 142 1550ft 0kts
10-Feb-20 21:41 33.403604 -118.415725 142 1550ft 0kts
10-Feb-20 21:42 33.403604 -118.415725 142 1550ft 0kts
10-Feb-20 21:43 33.403588 -118.415657 81 1549ft 2kts
10-Feb-20 21:44 33.405425 -118.414328 56 1534ft 12kts
10-Feb-20 21:45 33.407030 -118.411626 56 1502ft 0kts
10-Feb-20 21:46 33.407030 -118.411626 56 1502ft 0kts
10-Feb-20 21:47 33.407030 -118.411626 56 1502ft 0kts
10-Feb-20 21:48 33.407303 -118.411839 235 1503ft 0kts
10-Feb-20 21:49 33.397851 -118.424882 231 2159ft 74kts
10-Feb-20 21:50 33.373492 -118.443001 169 2416ft 150kts
10-Feb-20 21:50 33.357347 -118.414978 80 2408ft 99kts
10-Feb-20 21:52 33.371168 -118.384985 51 2797ft 82kts
10-Feb-20 21:53 33.372007 -118.357386 102 3202ft 91kts
10-Feb-20 21:53 33.366708 -118.332851 98 3611ft 91kts
10-Feb-20 21:55 33.360414 -118.297841 94 4351ft 92kts
10-Feb-20 21:55 33.356891 -118.272467 94 4880ft 93kts
10-Feb-20 21:56 33.350366 -118.234543 96 4996ft 135kts
10-Feb-20 21:58 33.342290 -118.181856 95 4992ft 139kts
10-Feb-20 21:58 33.336957 -118.143427 95 4990ft 140kts
10-Feb-20 21:59 33.330773 -118.097115 95 4989ft 140kts
10-Feb-20 22:01 33.323782 -118.044064 93 5034ft 137kts
10-Feb-20 22:01 33.318854 -118.006442 92 5033ft 135kts
10-Feb-20 22:02 33.313728 -117.967715 91 5031ft 108kts
10-Feb-20 22:03 33.309039 -117.930178 91 5030ft 113kts
10-Feb-20 22:04 33.304156 -117.893265 94 5028ft 110kts
10-Feb-20 22:05 33.299387 -117.857298 94 5026ft 107kts
10-Feb-20 22:06 33.294877 -117.823065 95 5024ft 100kts
10-Feb-20 22:07 33.290545 -117.791059 95 5025ft 96kts
10-Feb-20 22:08 33.286337 -117.758752 94 5027ft 101kts
10-Feb-20 22:09 33.281781 -117.723952 95 5027ft 109kts
10-Feb-20 22:10 33.276916 -117.687556 95 5026ft 110kts
10-Feb-20 22:11 33.272087 -117.651276 95 5026ft 109kts
10-Feb-20 22:12 33.267276 -117.615243 95 5009ft 110kts
10-Feb-20 22:13 33.262386 -117.579101 91 5015ft 109kts
10-Feb-20 22:14 33.257547 -117.542625 92 5017ft 111kts
10-Feb-20 22:15 33.252570 -117.505791 92 5017ft 112kts
10-Feb-20 22:16 33.247616 -117.468928 91 5016ft 111kts
10-Feb-20 22:17 33.242588 -117.432297 92 5015ft 110kts
10-Feb-20 22:18 33.231021 -117.406060 150 5015ft 101kts
10-Feb-20 22:19 33.201376 -117.395116 153 5016ft 122kts
10-Feb-20 22:20 33.167330 -117.382068 152 4962ft 119kts
10-Feb-20 22:21 33.137332 -117.370127 152 4963ft 114kts
10-Feb-20 22:22 33.106526 -117.357623 152 4960ft 117kts
10-Feb-20 22:23 33.075284 -117.344958 153 4964ft 118kts
10-Feb-20 22:24 33.043833 -117.332246 154 4965ft 119kts
10-Feb-20 22:25 33.015951 -117.313145 131 4965ft 115kts
10-Feb-20 22:26 32.993453 -117.287661 131 4964ft 103kts
10-Feb-20 22:27 32.972955 -117.264695 131 4970ft 109kts
10-Feb-20 22:28 32.949546 -117.237651 131 4969ft 121kts
10-Feb-20 22:29 32.925135 -117.209289 131 4972ft 123kts
10-Feb-20 22:30 32.900687 -117.180974 131 4974ft 118kts
10-Feb-20 22:31 32.877420 -117.154268 131 4976ft 114kts
10-Feb-20 22:32 32.854736 -117.128340 131 4977ft 110kts
10-Feb-20 22:33 32.833722 -117.104641 130 4978ft 100kts
10-Feb-20 22:34 32.813777 -117.080559 121 4982ft 107kts
10-Feb-20 22:35 32.794411 -117.050625 115 4980ft 116kts
10-Feb-20 22:36 32.784427 -117.014543 101 4980ft 114kts
10-Feb-20 22:37 32.774716 -116.979082 101 4981ft 112kts
10-Feb-20 22:38 32.764733 -116.944604 101 4980ft 105kts
10-Feb-20 22:39 32.755057 -116.913854 101 4979ft 92kts
10-Feb-20 22:40 32.731225 -116.902415 190 4509ft 129kts
10-Feb-20 22:41 32.697947 -116.914286 190 3984ft 119kts
10-Feb-20 22:42 32.676758 -116.939407 269 3794ft 122kts
10-Feb-20 22:43 32.681915 -116.975650 285 3783ft 105kts
10-Feb-20 22:44 32.689993 -117.010493 287 3369ft 110kts
10-Feb-20 22:45 32.698055 -117.043610 286 2683ft 88kts
10-Feb-20 22:46 32.705484 -117.074085 285 1986ft 87kts
10-Feb-20 22:47 32.711785 -117.100062 285 1656ft 83kts
10-Feb-20 22:48 32.718141 -117.126155 284 1081ft 81kts
10-Feb-20 22:49 32.724202 -117.151140 284 661ft 71kts
10-Feb-20 22:50 32.730103 -117.175069 284 172ft 78kts
10-Feb-20 22:51 32.733670 -117.188159 355 17ft 0kts
10-Feb-20 22:52 32.733375 -117.184152 106 17ft 29kts
10-Feb-20 22:53 32.732746 -117.177617 319 20ft 0kts

Navigation Log

Ident Type
Flight plan parsing failed, navigation log unavailable